AirNav   SIMCOM
 
 1306 users online  

CYTZ Toronto/City Centre Airport
Toronto, Ontario, Canada

GOING TO TORONTO?


FAA INFORMATION EFFECTIVE 07 DECEMBER 2017

Location

FAA Identifier: CYTZ
Lat/Long: 43-37-39.0000N / 079-23-46.0000W
43-37.650000N / 079-23.766667W
43.6275000 / -79.3961111
(estimated)
Elevation: 251 ft. / 77 m (estimated)
Variation: 11W ()
Time zone: UTC -5 (UTC -4 during Daylight Saving Time)
Zip code: 14174

Airport Operations

Airport use: Open to the public
Activation date: 04/2005
Control tower: no
ARTCC: TORONTO CENTER
FSS: LONDON FIC FLIGHT SERVICE STATION
Attendance: 
Segmented circle: no

Nearby radio navigation aids

VOR radial/distance  VOR name  Freq  Var
YYZr110/10.4TORONTO VOR/DME112.1510W

Airport Services

Runway Information

Runway 8/26

Dimensions: 4000 x 150 ft. / 1219 x 46 m
Surface: asphalt
RUNWAY 8  RUNWAY 26
Traffic pattern: leftleft

Runway 6/24

Dimensions: 3000 x 150 ft. / 914 x 46 m
Surface: asphalt
RUNWAY 6  RUNWAY 24
Traffic pattern: leftleft

Runway 15/33

Dimensions: 2780 x 150 ft. / 847 x 46 m
Surface: asphalt
RUNWAY 15  RUNWAY 33
Traffic pattern: leftleft

Airport Ownership and Management from official FAA records

Ownership: Privately-owned

Instrument Procedures

There are no published instrument procedures at CYTZ.

Some nearby airports with instrument procedures:

KIAG - Niagara Falls International Airport (37 nm SE)
0G0 - North Buffalo Suburban Airport (44 nm SE)
KBUF - Buffalo Niagara International Airport (50 nm SE)
9G3 - Akron Airport (54 nm SE)
9G0 - Buffalo Airfield (55 nm SE)
 
Loc | Ops | Rwys | IFR | FBO | Links
Com | Nav | Svcs | Stats | Notes


 
Aerial photo
No photo
 
Airport distance calculator
Flying to Toronto/City Centre Airport? Find the distance to fly.

From to CYTZ

Sunrise and sunset
Times for 14-Dec-2017
 Local
(UTC-5)
 Zulu
(UTC)
Morning civil twilight07:1212:12
Sunrise07:4412:44
Sunset16:4021:40
Evening civil twilight17:1322:13

Current date and time
Zulu (UTC)  14-Dec-2017 21:31:13
Local (UTC-5)  14-Dec-2017 16:31:13
 
METAR
CYTZ 142100Z AUTO 28013G18KT 9SM SCT037 M06/M13 A2995 RMK SLP148
CYYZ 
11nm W 
142100Z 26012KT 15SM FEW025 BKN034 BKN250 M07/M14 A2994 RMK CF1SC5CI1 CF TR SLP153
CYKZ 
14nm N 
142100Z 29011G18KT 250V310 15SM FEW025 SCT030 SCT066 SCT230 M07/M14 A2992 RMK SC1CU2ACC1CI1 ACC TR VIRGA SE - W SLP149
TAF
CYTZ 141946Z 1420/1520 29010G20KT P6SM FEW025 BECMG 1421/1423 28008KT FM151000 25008KT P6SM BKN040 BKN120 FM151500 23010KT P6SM BKN030 OVC090 FM151700 23010KT 11/2SM -SN OVC012 RMK FCST BASED ON AUTO OBS. NXT FCST BY 150200Z
CYYZ 
11nm W 
142017Z 1420/1524 29015G25KT P6SM FEW025 BECMG 1421/1423 28010KT FM151000 25008KT P6SM BKN040 BKN120 FM151500 23006KT P6SM BKN030 OVC090 FM151700 22006KT 11/2SM -SN OVC012 RMK NXT FCST BY 142100Z
CYKZ 
14nm N 
141742Z 1418/1506 29008KT P6SM FEW020 TEMPO 1418/1420 BKN015 FM142200 VRB03KT P6SM SKC RMK NXT FCST BY 150000Z
NOTAMs
Click for the latest NOTAMs
NOTAMs are issued by the DoD/FAA and will open in a separate window not controlled by AirNav.

 

 
 

Would you like to see your business listed on this page?

 If your business provides an interesting product or service to pilots, flight crews, aircraft, or users of the Toronto/City Centre Airport, you should consider listing it here.  To start the listing process, click on the button below
 
Add a business
 

Other Pages about Toronto/City Centre Airport

Update a link
 
Copyright © AirNav, LLC. All rights reserved. Privacy Policy  Contact